createdAt,value
2017-11-16T00:01:05.530Z,33.10
2017-11-16T00:03:33.406Z,28.83
2017-11-16T00:06:01.316Z,32.93
2017-11-16T00:08:29.158Z,33.17
2017-11-16T00:10:56.985Z,31.00
2017-11-16T00:13:24.809Z,29.50
2017-11-16T00:15:52.654Z,31.27
2017-11-16T00:18:20.462Z,32.87
2017-11-16T00:20:48.276Z,33.57
2017-11-16T00:23:16.111Z,31.03
2017-11-16T00:25:43.953Z,36.77
2017-11-16T00:28:11.822Z,32.13
2017-11-16T00:30:39.695Z,37.63
2017-11-16T00:33:07.541Z,37.07
2017-11-16T00:35:35.398Z,37.30
2017-11-16T00:38:03.249Z,38.23
2017-11-16T00:40:31.063Z,41.60
2017-11-16T00:42:58.887Z,41.43
2017-11-16T00:45:26.721Z,43.00
2017-11-16T00:47:54.585Z,43.73
2017-11-16T00:50:22.445Z,43.37
2017-11-16T00:52:50.298Z,46.00
2017-11-16T00:55:18.150Z,42.97
2017-11-16T00:57:46.012Z,45.30
2017-11-16T01:00:13.858Z,46.47
2017-11-16T01:02:41.690Z,47.20
2017-11-16T01:05:09.529Z,45.27
2017-11-16T01:07:37.437Z,47.50
2017-11-16T01:10:05.290Z,49.57
2017-11-16T01:12:33.124Z,51.63
2017-11-16T01:15:00.971Z,49.63
2017-11-16T01:17:28.803Z,48.67
2017-11-16T01:19:56.640Z,49.10
2017-11-16T01:22:24.478Z,52.77
2017-11-16T01:24:52.338Z,52.90
2017-11-16T01:27:20.162Z,48.80
2017-11-16T01:29:47.997Z,53.40
2017-11-16T01:32:15.844Z,49.67
2017-11-16T01:34:43.713Z,51.57
2017-11-16T01:37:11.550Z,52.13
2017-11-16T01:39:39.393Z,50.80
2017-11-16T01:42:07.237Z,51.47
2017-11-16T01:44:35.085Z,53.20
2017-11-16T01:47:02.926Z,50.30
2017-11-16T01:49:30.765Z,54.00
2017-11-16T01:51:58.595Z,49.00
2017-11-16T01:54:26.430Z,52.70
2017-11-16T01:56:54.261Z,51.90
2017-11-16T01:59:22.080Z,56.27
2017-11-16T02:01:49.918Z,58.40
2017-11-16T02:04:17.775Z,53.83
2017-11-16T02:06:45.628Z,52.40
2017-11-16T02:09:13.476Z,53.23
2017-11-16T02:11:41.363Z,51.50
2017-11-16T02:14:09.214Z,54.20
2017-11-16T02:16:37.053Z,53.90
2017-11-16T02:19:04.898Z,46.30
2017-11-16T02:21:32.730Z,53.67
2017-11-16T02:24:00.568Z,50.87
2017-11-16T02:26:28.382Z,52.07
2017-11-16T02:28:56.234Z,50.87
2017-11-16T02:31:24.063Z,52.37
2017-11-16T02:33:51.931Z,51.53
2017-11-16T02:36:19.799Z,50.43
2017-11-16T02:38:47.676Z,49.83
2017-11-16T02:41:15.502Z,50.57
2017-11-16T02:43:43.356Z,52.87
2017-11-16T02:46:11.182Z,48.10
2017-11-16T02:48:39.160Z,48.90
2017-11-16T02:51:07.022Z,50.80
2017-11-16T02:53:34.870Z,50.50
2017-11-16T02:56:02.741Z,50.47
2017-11-16T02:58:30.585Z,47.13
2017-11-16T03:00:58.470Z,48.50
2017-11-16T03:03:26.377Z,48.10
2017-11-16T03:05:54.248Z,46.63
2017-11-16T03:08:22.100Z,52.60
2017-11-16T03:10:50.023Z,49.97
2017-11-16T03:13:17.835Z,50.70
2017-11-16T03:15:45.695Z,47.20
2017-11-16T03:18:13.533Z,47.47
2017-11-16T03:20:41.402Z,51.00
2017-11-16T03:23:09.225Z,48.87
2017-11-16T03:25:37.074Z,47.80
2017-11-16T03:28:04.905Z,48.47
2017-11-16T03:30:32.778Z,51.87
2017-11-16T03:33:00.594Z,47.70
2017-11-16T03:35:28.429Z,48.20
2017-11-16T03:37:56.254Z,49.83
2017-11-16T03:40:24.137Z,48.50
2017-11-16T03:42:51.966Z,49.67
2017-11-16T03:45:19.809Z,46.00
2017-11-16T03:47:47.657Z,49.83
2017-11-16T03:50:15.506Z,49.53
2017-11-16T03:52:43.394Z,46.73
2017-11-16T03:55:11.228Z,45.63
2017-11-16T03:57:39.063Z,46.77
2017-11-16T04:00:06.876Z,45.00
2017-11-16T04:02:34.796Z,43.37
2017-11-16T04:05:03.406Z,42.07
2017-11-16T04:07:32.221Z,41.70
2017-11-16T04:10:00.094Z,42.17
2017-11-16T04:12:27.925Z,44.47
2017-11-16T04:14:55.769Z,45.00
2017-11-16T04:17:23.629Z,42.77
2017-11-16T04:19:51.504Z,43.90
2017-11-16T04:22:19.318Z,42.30
2017-11-16T04:24:47.190Z,39.63
2017-11-16T04:27:15.046Z,42.47
2017-11-16T04:29:42.885Z,45.60
2017-11-16T04:32:10.734Z,41.73
2017-11-16T04:34:38.612Z,38.13
2017-11-16T04:37:06.442Z,33.63
2017-11-16T04:39:34.290Z,34.10
2017-11-16T04:42:02.158Z,33.97
2017-11-16T04:44:30.039Z,36.87
2017-11-16T04:46:57.879Z,32.90
2017-11-16T04:49:25.722Z,33.17
2017-11-16T04:51:53.539Z,30.43
2017-11-16T04:54:21.361Z,35.03
2017-11-16T04:56:49.205Z,36.60
2017-11-16T04:59:17.042Z,36.13
2017-11-16T05:01:44.890Z,38.73
2017-11-16T05:04:12.784Z,40.17
2017-11-16T05:06:40.645Z,36.10
2017-11-16T05:09:08.497Z,41.47
2017-11-16T05:11:36.342Z,36.83
2017-11-16T05:14:04.168Z,37.07
2017-11-16T05:16:32.055Z,36.80
2017-11-16T05:18:59.916Z,40.27
2017-11-16T05:21:27.775Z,35.03
2017-11-16T05:23:55.631Z,33.13
2017-11-16T05:26:23.490Z,36.70
2017-11-16T05:28:51.329Z,35.80
2017-11-16T05:31:19.225Z,31.10
2017-11-16T05:33:47.091Z,34.27
2017-11-16T05:36:14.913Z,33.67
2017-11-16T05:38:42.770Z,34.50
2017-11-16T05:41:10.630Z,33.20
2017-11-16T05:43:38.497Z,37.80
2017-11-16T05:46:06.362Z,37.30
2017-11-16T05:48:34.230Z,30.67
2017-11-16T05:51:02.075Z,37.33
2017-11-16T05:53:29.903Z,38.43
2017-11-16T05:55:57.729Z,33.77
2017-11-16T05:58:25.591Z,38.33
2017-11-16T06:00:53.441Z,36.57
2017-11-16T06:03:21.309Z,39.10
2017-11-16T06:05:49.166Z,38.23
2017-11-16T06:08:17.017Z,38.57
2017-11-16T06:10:44.862Z,39.57
2017-11-16T06:13:12.704Z,39.10
2017-11-16T06:15:40.552Z,39.57
2017-11-16T06:18:08.441Z,37.47
2017-11-16T06:20:36.285Z,38.33
2017-11-16T06:23:04.106Z,37.70
2017-11-16T06:25:31.951Z,37.90
2017-11-16T06:27:59.786Z,38.00
2017-11-16T06:30:27.634Z,35.83
2017-11-16T06:32:55.486Z,35.63
2017-11-16T06:35:23.383Z,36.27
2017-11-16T06:37:51.249Z,36.60
2017-11-16T06:40:19.215Z,33.50
2017-11-16T06:42:47.087Z,36.67
2017-11-16T06:45:14.954Z,37.70
2017-11-16T06:47:42.809Z,33.10
2017-11-16T06:50:10.645Z,37.60
2017-11-16T06:52:43.790Z,40.17
2017-11-16T06:55:11.748Z,38.90
2017-11-16T06:57:39.603Z,38.00
2017-11-16T07:00:07.482Z,34.53
2017-11-16T07:02:35.438Z,39.10
2017-11-16T07:05:03.307Z,36.13
2017-11-16T07:07:31.174Z,37.50
2017-11-16T07:09:59.054Z,35.73
2017-11-16T07:12:26.901Z,36.80
2017-11-16T07:14:54.698Z,35.70
2017-11-16T07:17:22.530Z,34.50
2017-11-16T07:19:50.365Z,34.87
2017-11-16T07:22:18.249Z,33.47
2017-11-16T07:24:46.129Z,24.67
2017-11-16T07:27:14.093Z,32.50
2017-11-16T07:29:41.966Z,34.93
2017-11-16T07:32:09.862Z,32.17
2017-11-16T07:34:37.698Z,31.97
2017-11-16T07:37:05.549Z,32.97
2017-11-16T07:39:33.414Z,32.50
2017-11-16T07:42:01.268Z,31.47
2017-11-16T07:44:29.097Z,35.27
2017-11-16T07:46:56.952Z,32.47
2017-11-16T07:49:24.832Z,32.93
2017-11-16T07:51:52.699Z,32.93
2017-11-16T07:54:20.539Z,33.63
2017-11-16T07:56:48.389Z,33.60
2017-11-16T07:59:16.209Z,32.37
2017-11-16T08:01:44.039Z,35.50
2017-11-16T08:04:11.860Z,37.07
2017-11-16T08:06:39.678Z,34.87
2017-11-16T08:09:08.402Z,36.23
2017-11-16T08:11:36.211Z,35.07
2017-11-16T08:14:04.043Z,35.50
2017-11-16T08:16:31.938Z,34.43
2017-11-16T08:18:59.758Z,34.13
2017-11-16T08:21:27.586Z,34.47
2017-11-16T08:23:55.456Z,33.27
2017-11-16T08:26:23.285Z,32.73
2017-11-16T08:28:51.135Z,32.50
2017-11-16T08:31:18.981Z,33.97
2017-11-16T08:33:46.805Z,33.70
2017-11-16T08:36:14.661Z,35.40
2017-11-16T08:38:42.496Z,35.23
2017-11-16T08:41:10.369Z,34.47
2017-11-16T08:43:38.286Z,31.73
2017-11-16T08:46:06.157Z,33.40
2017-11-16T08:48:34.022Z,36.10
2017-11-16T08:51:01.895Z,39.40
2017-11-16T08:53:29.726Z,39.33
2017-11-16T08:55:57.571Z,42.20
2017-11-16T08:58:25.434Z,35.93
2017-11-16T09:00:53.303Z,42.33
2017-11-16T09:03:21.136Z,38.33
2017-11-16T09:05:48.964Z,38.57
2017-11-16T09:08:16.802Z,41.70
2017-11-16T09:10:44.634Z,37.50
2017-11-16T09:13:12.485Z,39.87
2017-11-16T09:15:40.346Z,40.87
2017-11-16T09:18:08.194Z,38.67
2017-11-16T09:20:36.051Z,34.57
2017-11-16T09:23:03.917Z,38.20
2017-11-16T09:25:31.742Z,40.23
2017-11-16T09:27:59.585Z,38.60
2017-11-16T09:30:27.409Z,33.20
2017-11-16T09:32:55.244Z,35.30
2017-11-16T09:35:23.142Z,36.83
2017-11-16T09:37:50.981Z,38.00
2017-11-16T09:40:18.877Z,35.80
2017-11-16T09:42:46.728Z,34.90
2017-11-16T09:45:14.581Z,34.13
2017-11-16T09:47:42.470Z,30.50
2017-11-16T09:50:10.351Z,32.20
2017-11-16T09:52:38.235Z,32.73
2017-11-16T09:55:06.078Z,33.83
2017-11-16T09:57:33.941Z,36.10
2017-11-16T10:00:01.822Z,30.33
2017-11-16T10:02:29.807Z,36.90
2017-11-16T10:04:57.647Z,30.37
2017-11-16T10:07:25.474Z,32.67
2017-11-16T10:09:53.377Z,33.93
2017-11-16T10:12:21.215Z,30.47
2017-11-16T10:14:49.031Z,27.87
2017-11-16T10:17:16.885Z,29.03
2017-11-16T10:19:44.740Z,24.13
2017-11-16T10:22:12.596Z,27.10
2017-11-16T10:24:40.426Z,29.70
2017-11-16T10:27:08.245Z,30.40
2017-11-16T10:29:36.065Z,27.53
2017-11-16T10:32:03.913Z,28.00
2017-11-16T10:34:31.818Z,25.53
2017-11-16T10:36:59.705Z,27.40
2017-11-16T10:39:27.539Z,30.73
2017-11-16T10:41:55.371Z,25.43
2017-11-16T10:44:23.211Z,28.00
2017-11-16T10:46:51.038Z,28.70
2017-11-16T10:49:18.861Z,23.80
2017-11-16T10:51:46.682Z,21.60
2017-11-16T10:54:14.521Z,20.20
2017-11-16T10:56:42.373Z,22.77
2017-11-16T10:59:10.235Z,25.67
2017-11-16T11:01:38.095Z,25.03
2017-11-16T11:04:05.926Z,24.60
2017-11-16T11:06:33.761Z,24.13
2017-11-16T11:09:01.615Z,25.83
2017-11-16T11:11:29.450Z,26.60
2017-11-16T11:13:57.347Z,25.47
2017-11-16T11:16:25.190Z,25.00
2017-11-16T11:18:53.030Z,25.30
2017-11-16T11:21:20.857Z,28.20
2017-11-16T11:23:48.710Z,25.30
2017-11-16T11:26:16.531Z,26.87
2017-11-16T11:28:44.383Z,24.40
2017-11-16T11:31:12.202Z,26.00
2017-11-16T11:33:40.022Z,23.70
2017-11-16T11:36:07.872Z,24.30
2017-11-16T11:38:35.721Z,26.87
2017-11-16T11:41:03.638Z,26.20
2017-11-16T11:43:31.664Z,25.90
2017-11-16T11:45:59.515Z,20.83
2017-11-16T11:48:27.367Z,25.20
2017-11-16T11:50:55.250Z,25.37
2017-11-16T11:53:23.075Z,26.60
2017-11-16T11:55:50.915Z,26.70
2017-11-16T11:58:18.736Z,26.53
2017-11-16T12:00:46.599Z,19.80
2017-11-16T12:03:14.439Z,22.93
2017-11-16T12:05:42.275Z,25.67
2017-11-16T12:08:10.141Z,24.77
2017-11-16T12:10:37.993Z,23.13
2017-11-16T12:13:05.845Z,19.73
2017-11-16T12:15:33.730Z,22.27
2017-11-16T12:18:01.559Z,24.53
2017-11-16T12:20:29.663Z,21.43
2017-11-16T12:22:57.664Z,26.07
2017-11-16T12:25:25.511Z,24.47
2017-11-16T12:27:53.354Z,27.33
2017-11-16T12:30:21.329Z,26.57
2017-11-16T12:32:49.179Z,27.10
2017-11-16T12:35:17.000Z,25.97
2017-11-16T12:37:44.867Z,25.40
2017-11-16T12:40:12.695Z,26.13
2017-11-16T12:42:40.561Z,26.40
2017-11-16T12:45:08.406Z,25.27
2017-11-16T12:47:36.282Z,26.43
2017-11-16T12:50:04.126Z,25.30
2017-11-16T12:52:31.995Z,23.53
2017-11-16T12:54:59.858Z,28.90
2017-11-16T12:57:27.703Z,28.17
2017-11-16T12:59:55.547Z,22.57
2017-11-16T13:02:23.402Z,28.00
2017-11-16T13:04:51.244Z,28.00
2017-11-16T13:07:19.085Z,27.57
2017-11-16T13:09:46.926Z,28.60
2017-11-16T13:12:14.766Z,21.87
2017-11-16T13:14:42.595Z,25.40
2017-11-16T13:17:10.454Z,22.57
2017-11-16T13:19:38.304Z,25.73
2017-11-16T13:22:06.196Z,17.17
2017-11-16T13:24:34.043Z,23.40
2017-11-16T13:27:01.886Z,25.90
2017-11-16T13:29:29.695Z,28.67
2017-11-16T13:31:57.497Z,20.13
2017-11-16T13:34:25.310Z,32.20
2017-11-16T13:36:53.142Z,24.20
2017-11-16T13:39:20.983Z,30.13
2017-11-16T13:41:48.802Z,32.63
2017-11-16T13:44:16.637Z,30.73
2017-11-16T13:46:44.459Z,27.97
2017-11-16T13:49:12.302Z,23.50
2017-11-16T13:51:40.121Z,31.57
2017-11-16T13:54:07.958Z,31.33
2017-11-16T13:56:35.864Z,32.17
2017-11-16T13:59:03.729Z,29.97
2017-11-16T14:01:31.566Z,30.57
2017-11-16T14:03:59.374Z,31.17
2017-11-16T14:06:27.211Z,29.40
2017-11-16T14:08:55.090Z,30.10
2017-11-16T14:11:22.917Z,27.30
2017-11-16T14:13:50.754Z,29.27
2017-11-16T14:16:18.581Z,31.17
2017-11-16T14:18:46.425Z,33.73
2017-11-16T14:21:14.292Z,33.73
2017-11-16T14:23:42.152Z,32.50
2017-11-16T14:26:09.985Z,31.77
2017-11-16T14:28:37.815Z,30.03
2017-11-16T14:31:05.688Z,32.80
2017-11-16T14:33:33.618Z,30.60
2017-11-16T14:36:01.477Z,27.60
2017-11-16T14:38:29.328Z,34.87
2017-11-16T14:40:57.163Z,34.23
2017-11-16T14:43:25.004Z,27.27
2017-11-16T14:45:52.825Z,35.50
2017-11-16T14:48:20.682Z,33.30
2017-11-16T14:50:48.523Z,35.87
2017-11-16T14:53:16.385Z,35.90
2017-11-16T14:55:44.210Z,30.50
2017-11-16T14:58:12.057Z,31.27
2017-11-16T15:00:39.912Z,31.50
2017-11-16T15:03:07.868Z,33.53
2017-11-16T15:05:35.693Z,31.80
2017-11-16T15:08:03.567Z,34.77
2017-11-16T15:10:31.414Z,27.97
2017-11-16T15:12:59.277Z,32.90
2017-11-16T15:15:27.122Z,25.20
2017-11-16T15:17:54.974Z,35.37
2017-11-16T15:20:22.823Z,35.60
2017-11-16T15:22:50.686Z,29.40
2017-11-16T15:25:18.532Z,36.10
2017-11-16T15:27:46.398Z,36.93
2017-11-16T15:30:14.251Z,59.00
2017-11-16T15:32:42.086Z,24.23
2017-11-16T15:35:09.953Z,57.27
2017-11-16T15:37:37.803Z,39.03
2017-11-16T15:40:05.659Z,39.07
2017-11-16T15:42:33.520Z,34.70
2017-11-16T15:45:01.355Z,34.23
2017-11-16T15:47:29.189Z,33.40
2017-11-16T15:49:57.070Z,29.00
2017-11-16T15:52:24.923Z,32.47
2017-11-16T15:54:52.774Z,33.50
2017-11-16T15:57:20.590Z,37.40
2017-11-16T15:59:48.493Z,36.83
2017-11-16T16:02:16.336Z,33.57
2017-11-16T16:04:44.207Z,33.40
2017-11-16T16:07:12.061Z,37.07
2017-11-16T16:09:39.912Z,36.40
2017-11-16T16:12:08.683Z,37.90
2017-11-16T16:14:36.523Z,39.30
2017-11-16T16:17:04.389Z,39.43
2017-11-16T16:19:32.256Z,42.20
2017-11-16T16:22:00.098Z,38.57
2017-11-16T16:24:27.938Z,37.27
2017-11-16T16:26:55.801Z,37.97
2017-11-16T16:29:23.609Z,40.47
2017-11-16T16:31:51.476Z,38.57
2017-11-16T16:34:19.326Z,37.67
2017-11-16T16:36:47.162Z,38.57
2017-11-16T16:39:14.978Z,33.07
2017-11-16T16:41:42.822Z,34.77
2017-11-16T16:44:10.653Z,37.20
2017-11-16T16:46:38.523Z,34.97
2017-11-16T16:49:06.359Z,37.47
2017-11-16T16:51:34.242Z,38.30
2017-11-16T16:54:02.092Z,41.40
2017-11-16T16:56:29.968Z,38.13
2017-11-16T16:58:57.799Z,35.30
2017-11-16T17:01:25.647Z,38.70
2017-11-16T17:03:53.493Z,38.20
2017-11-16T17:06:21.351Z,36.73
2017-11-16T17:08:49.208Z,36.93
2017-11-16T17:11:17.046Z,34.00
2017-11-16T17:13:44.882Z,31.40
2017-11-16T17:16:12.754Z,31.67
2017-11-16T17:18:40.588Z,36.87
2017-11-16T17:21:08.429Z,38.43
2017-11-16T17:23:36.255Z,38.87
2017-11-16T17:26:04.129Z,37.17
2017-11-16T17:28:31.958Z,40.17
2017-11-16T17:30:59.807Z,32.57
2017-11-16T17:33:27.667Z,33.30
2017-11-16T17:35:55.528Z,38.73
2017-11-16T17:38:23.400Z,28.10
2017-11-16T17:40:51.237Z,29.33
2017-11-16T17:43:19.069Z,34.97
2017-11-16T17:45:47.164Z,32.50
2017-11-16T17:48:15.076Z,37.27
2017-11-16T17:50:42.928Z,36.13
2017-11-16T17:53:10.807Z,35.47
2017-11-16T17:55:38.691Z,39.33
2017-11-16T17:58:06.578Z,21.47
2017-11-16T18:00:34.509Z,38.40
2017-11-16T18:03:02.406Z,34.37
2017-11-16T18:05:30.326Z,30.33
2017-11-16T18:07:58.411Z,36.97
2017-11-16T18:10:26.336Z,40.70
2017-11-16T18:12:56.319Z,38.87
2017-11-16T18:15:24.175Z,39.30
2017-11-16T18:17:52.007Z,30.93
2017-11-16T18:20:19.842Z,41.13
2017-11-16T18:22:47.674Z,42.43
2017-11-16T18:25:15.513Z,29.13
2017-11-16T18:27:43.340Z,42.10
2017-11-16T18:30:11.250Z,41.50
2017-11-16T18:32:39.082Z,42.43
2017-11-16T18:35:06.918Z,41.27
2017-11-16T18:37:34.762Z,40.27
2017-11-16T18:40:02.605Z,45.40
2017-11-16T18:42:30.410Z,45.90
2017-11-16T18:44:58.234Z,31.30
2017-11-16T18:47:26.067Z,41.80
2017-11-16T18:49:53.928Z,36.93
2017-11-16T18:52:21.791Z,43.90
2017-11-16T18:54:49.644Z,40.60
2017-11-16T18:57:17.511Z,27.83
2017-11-16T18:59:45.391Z,46.13
2017-11-16T19:02:13.210Z,41.73
2017-11-16T19:04:41.108Z,41.30
2017-11-16T19:07:08.958Z,47.00
2017-11-16T19:09:36.822Z,46.13
2017-11-16T19:12:04.711Z,40.17
2017-11-16T19:14:32.554Z,49.43
2017-11-16T19:17:00.382Z,46.10
2017-11-16T19:19:28.218Z,49.60
2017-11-16T19:21:56.067Z,50.20
2017-11-16T19:24:23.951Z,51.07
2017-11-16T19:26:51.798Z,49.03
2017-11-16T19:29:19.662Z,43.57
2017-11-16T19:31:47.527Z,42.53
2017-11-16T19:34:15.394Z,48.20
2017-11-16T19:36:43.259Z,49.67
2017-11-16T19:39:11.119Z,30.67
2017-11-16T19:41:38.993Z,46.00
2017-11-16T19:44:06.816Z,48.30
2017-11-16T19:46:34.678Z,50.57
2017-11-16T19:49:02.542Z,44.30
2017-11-16T19:51:30.385Z,46.27
2017-11-16T19:53:58.216Z,50.00
2017-11-16T19:56:26.087Z,40.23
2017-11-16T19:58:53.953Z,37.40
2017-11-16T20:01:21.825Z,50.30
2017-11-16T20:03:49.699Z,49.60
2017-11-16T20:06:17.576Z,51.30
2017-11-16T20:08:45.442Z,33.73
2017-11-16T20:11:13.290Z,33.53
2017-11-16T20:13:41.148Z,40.40
2017-11-16T20:16:08.980Z,41.10
2017-11-16T20:18:36.878Z,49.00
2017-11-16T20:21:04.717Z,44.10
2017-11-16T20:23:32.564Z,40.07
2017-11-16T20:26:00.400Z,43.53
2017-11-16T20:28:28.237Z,49.10
2017-11-16T20:30:56.101Z,47.13
2017-11-16T20:33:23.930Z,46.57
2017-11-16T20:35:51.767Z,47.10
2017-11-16T20:38:23.410Z,50.00
2017-11-16T20:40:53.002Z,49.23
2017-11-16T20:43:22.613Z,40.97
2017-11-16T20:45:54.233Z,37.57
2017-11-16T20:48:38.846Z,48.40
2017-11-16T20:51:06.662Z,52.73
2017-11-16T20:53:51.417Z,32.03
2017-11-16T20:56:19.285Z,48.97
2017-11-16T20:58:47.526Z,50.47
2017-11-16T21:01:15.536Z,51.73
2017-11-16T21:03:43.383Z,47.27
2017-11-16T21:06:11.229Z,53.97
2017-11-16T21:08:39.105Z,48.83
2017-11-16T21:11:06.930Z,39.37
2017-11-16T21:13:34.764Z,46.33
2017-11-16T21:16:02.589Z,46.50
2017-11-16T21:18:30.427Z,50.50
2017-11-16T21:20:58.274Z,38.60
2017-11-16T21:23:26.138Z,51.83
2017-11-16T21:25:54.012Z,43.37
2017-11-16T21:28:21.864Z,46.93
2017-11-16T21:30:49.699Z,40.80
2017-11-16T21:33:17.533Z,51.10
2017-11-16T21:35:45.455Z,45.57
2017-11-16T21:38:13.337Z,41.03
2017-11-16T21:40:41.171Z,52.40
2017-11-16T21:43:09.050Z,49.27
2017-11-16T21:45:36.914Z,39.80
2017-11-16T21:48:04.756Z,52.50
2017-11-16T21:50:32.622Z,38.67
2017-11-16T21:53:00.469Z,45.60
2017-11-16T21:55:28.362Z,51.50
2017-11-16T21:57:56.236Z,54.80
2017-11-16T22:00:24.062Z,55.47
2017-11-16T22:02:51.916Z,57.80
2017-11-16T22:05:26.289Z,56.20
2017-11-16T22:07:54.168Z,55.63
2017-11-16T22:10:21.993Z,52.90
2017-11-16T22:12:49.889Z,55.00
2017-11-16T22:15:17.732Z,54.03
2017-11-16T22:17:45.594Z,47.33
2017-11-16T22:20:13.537Z,49.20
2017-11-16T22:22:41.411Z,53.57
2017-11-16T22:25:09.270Z,53.83
2017-11-16T22:27:37.143Z,50.03
2017-11-16T22:30:05.017Z,47.97
2017-11-16T22:32:32.910Z,47.60
2017-11-16T22:35:00.758Z,39.70
2017-11-16T22:37:28.678Z,35.83
2017-11-16T22:39:56.538Z,24.40
2017-11-16T22:42:24.457Z,21.73
2017-11-16T22:44:52.282Z,19.47
2017-11-16T22:47:20.182Z,18.33
2017-11-16T22:49:48.016Z,18.23
2017-11-16T22:52:15.894Z,13.47
2017-11-16T22:54:43.741Z,13.20
2017-11-16T22:57:11.597Z,11.80
2017-11-16T22:59:39.465Z,10.70
2017-11-16T23:02:07.341Z,9.33
2017-11-16T23:04:35.268Z,7.30
2017-11-16T23:07:03.177Z,7.03
2017-11-16T23:09:31.074Z,6.43
2017-11-16T23:11:58.965Z,6.83
2017-11-16T23:14:26.831Z,5.87
2017-11-16T23:16:54.676Z,6.23
2017-11-16T23:19:22.561Z,5.67
2017-11-16T23:21:50.402Z,5.10
2017-11-16T23:24:18.338Z,4.90
2017-11-16T23:26:46.219Z,4.80
2017-11-16T23:29:14.091Z,4.40
2017-11-16T23:31:41.955Z,4.37
2017-11-16T23:34:09.809Z,5.07
2017-11-16T23:36:37.756Z,5.67
2017-11-16T23:39:05.631Z,4.70
2017-11-16T23:41:33.512Z,4.93
2017-11-16T23:44:01.363Z,4.80
2017-11-16T23:46:29.251Z,4.90
2017-11-16T23:48:57.122Z,4.23
2017-11-16T23:51:25.028Z,4.70
2017-11-16T23:53:52.923Z,4.83
2017-11-16T23:56:20.788Z,4.87
2017-11-16T23:58:48.663Z,5.10
